Time;durP1;ratioP1;P1;durP2;ratioP2;P2;SDS_P1;SDS_P2;PMS_P1;PMS_P2;Temp;Humidity;BMP_temperature;BMP_pressure;BME280_temperature;BME280_humidity;BME280_pressure;Samples;Min_cycle;Max_cycle;Signal;HPM_P1;HPM_P2
2024/02/15 00:00:21;;;;;;;62.60;23.43;;;3.80;1.00;;;;;;4420168;28;659888;-76
2024/02/15 00:03:13;;;;;;;51.27;20.70;;;3.90;1.00;;;;;;4429941;28;659066;-75
2024/02/15 00:06:00;;;;;;;51.47;21.03;;;4.00;1.00;;;;;;4426598;28;658866;-76
2024/02/15 00:08:47;;;;;;;45.88;19.95;;;4.00;1.00;;;;;;4433206;28;659399;-75
2024/02/15 00:11:35;;;;;;;51.17;20.60;;;4.00;99.90;;;;;;4451975;28;659055;-76
2024/02/15 00:14:24;;;;;;;49.17;20.87;;;4.00;99.90;;;;;;4442848;28;659444;-75
2024/02/15 00:17:11;;;;;;;47.57;20.67;;;4.00;1.00;;;;;;4449827;28;659858;-76
2024/02/15 00:19:59;;;;;;;46.20;19.83;;;4.00;1.00;;;;;;4428854;28;658579;-76
2024/02/15 00:22:47;;;;;;;47.97;20.87;;;4.00;1.00;;;;;;4452955;28;659106;-76
2024/02/15 00:25:35;;;;;;;46.15;19.70;;;4.10;1.00;;;;;;4428518;28;658733;-76
2024/02/15 00:28:23;;;;;;;48.38;19.25;;;4.10;99.90;;;;;;4430270;28;658432;-76
2024/02/15 00:31:12;;;;;;;51.20;19.70;;;4.10;99.90;;;;;;4449125;28;659897;-76
2024/02/15 00:34:02;;;;;;;45.27;18.10;;;4.10;99.90;;;;;;4426860;28;660759;-76
2024/02/15 00:36:49;;;;;;;44.47;18.00;;;4.20;1.00;;;;;;4424243;28;660938;-75
2024/02/15 00:39:36;;;;;;;47.33;18.95;;;4.20;1.00;;;;;;4447267;28;659453;-76
2024/02/15 00:42:24;;;;;;;40.53;17.53;;;4.20;1.00;;;;;;4425182;28;659462;-76
2024/02/15 00:45:11;;;;;;;45.30;17.37;;;4.20;1.00;;;;;;4448514;28;658965;-76
2024/02/15 00:48:00;;;;;;;47.03;20.00;;;4.10;1.00;;;;;;4420754;28;658932;-76
2024/02/15 00:50:47;;;;;;;48.87;18.53;;;4.10;1.00;;;;;;4434644;28;658591;-76
2024/02/15 00:53:34;;;;;;;48.20;18.37;;;4.00;5.80;;;;;;4411670;28;659181;-76
2024/02/15 00:56:22;;;;;;;43.83;20.03;;;4.00;99.90;;;;;;4428290;28;659610;-76
2024/02/15 00:59:09;;;;;;;46.43;19.10;;;4.00;99.90;;;;;;4406834;28;660077;-76
2024/02/15 01:01:56;;;;;;;45.77;20.20;;;4.10;99.90;;;;;;4426933;28;659692;-76
2024/02/15 01:04:45;;;;;;;42.57;18.47;;;4.10;99.90;;;;;;4405416;28;660236;-76
2024/02/15 01:07:33;;;;;;;39.77;17.93;;;4.20;99.90;;;;;;4420601;28;659725;-76
2024/02/15 01:10:20;;;;;;;41.77;18.87;;;4.20;99.90;;;;;;4426408;28;660180;-76
2024/02/15 01:13:08;;;;;;;43.95;18.75;;;4.30;88.80;;;;;;4414441;28;660074;-75
2024/02/15 01:15:55;;;;;;;37.87;16.23;;;4.40;21.50;;;;;;4427084;28;659403;-76
2024/02/15 01:18:43;;;;;;;46.27;16.63;;;4.40;97.60;;;;;;4404488;28;659599;-76
2024/02/15 01:21:33;;;;;;;40.17;16.67;;;4.50;73.70;;;;;;4428201;28;660757;-76
2024/02/15 01:24:20;;;;;;;36.83;17.10;;;4.50;99.90;;;;;;4392805;28;660352;-77
2024/02/15 01:27:08;;;;;;;41.40;17.63;;;4.50;99.90;;;;;;4418541;28;659510;-75
2024/02/15 01:29:55;;;;;;;43.07;17.57;;;4.50;99.90;;;;;;4427377;28;660253;-76
2024/02/15 01:32:43;;;;;;;40.57;16.83;;;4.40;99.90;;;;;;4408714;28;660112;-75
2024/02/15 01:35:30;;;;;;;45.30;17.60;;;4.50;99.90;;;;;;4423389;28;660734;-76
2024/02/15 01:38:19;;;;;;;36.90;16.50;;;4.50;99.90;;;;;;4412820;28;660640;-76
2024/02/15 01:41:06;;;;;;;44.43;17.07;;;4.40;99.90;;;;;;4414344;28;659895;-76
2024/02/15 01:43:53;;;;;;;41.13;18.17;;;4.50;1.00;;;;;;4402897;28;659924;-76
2024/02/15 01:46:41;;;;;;;39.35;17.15;;;4.50;1.00;;;;;;4428362;28;659890;-76
2024/02/15 01:49:28;;;;;;;44.27;16.50;;;4.60;99.90;;;;;;4405381;28;659069;-75
2024/02/15 01:52:15;;;;;;;34.47;16.10;;;4.70;99.90;;;;;;4426956;28;659980;-76
2024/02/15 01:55:08;;;;;;;41.00;16.53;;;4.80;78.60;;;;;;4415792;28;660266;-76
2024/02/15 01:57:55;;;;;;;37.77;15.90;;;4.90;1.00;;;;;;4426640;28;660430;-76
2024/02/15 02:00:43;;;;;;;44.78;15.70;;;4.90;1.00;;;;;;4417894;28;659284;-75
2024/02/15 02:03:30;;;;;;;42.17;16.40;;;5.10;1.00;;;;;;4430636;28;659339;-76
2024/02/15 02:06:17;;;;;;;36.73;16.20;;;5.00;1.00;;;;;;4415790;28;658584;-76
2024/02/15 02:09:05;;;;;;;35.47;16.50;;;5.00;1.00;;;;;;4429448;28;659490;-76
2024/02/15 02:11:54;;;;;;;32.50;15.17;;;5.10;1.00;;;;;;4427405;28;658562;-75
2024/02/15 02:14:41;;;;;;;41.13;16.53;;;5.10;1.00;;;;;;4450947;28;658676;-76
2024/02/15 02:17:28;;;;;;;39.73;16.53;;;5.20;99.90;;;;;;4410582;28;659575;-76
2024/02/15 02:20:16;;;;;;;42.87;17.50;;;5.20;99.90;;;;;;4432084;28;660235;-76
2024/02/15 02:23:07;;;;;;;40.93;16.37;;;5.30;99.90;;;;;;4409579;28;659457;-76
2024/02/15 02:25:56;;;;;;;33.60;15.85;;;5.30;99.90;;;;;;4426662;28;660271;-76
2024/02/15 02:28:43;;;;;;;42.07;18.53;;;5.10;1.00;;;;;;4426364;28;659818;-75
2024/02/15 02:31:31;;;;;;;44.93;16.53;;;5.10;1.00;;;;;;4446544;28;659637;-75
2024/02/15 02:34:19;;;;;;;39.07;18.30;;;5.00;1.00;;;;;;4424073;28;659197;-76
2024/02/15 02:37:07;;;;;;;38.63;16.00;;;5.10;1.00;;;;;;4447991;28;658551;-75
2024/02/15 02:39:54;;;;;;;40.43;16.63;;;5.10;1.00;;;;;;4427810;28;659649;-76
2024/02/15 02:42:49;;;;;;;37.13;16.30;;;5.00;1.00;;;;;;4445991;28;658840;-76
2024/02/15 02:45:37;;;;;;;34.57;16.47;;;5.00;1.00;;;;;;4423269;28;659261;-76
2024/02/15 02:48:24;;;;;;;37.53;16.87;;;5.00;47.20;;;;;;4419640;28;659186;-76
2024/02/15 02:51:12;;;;;;;41.13;17.57;;;4.90;98.00;;;;;;4427282;28;660559;-77
2024/02/15 02:53:59;;;;;;;51.03;18.90;;;5.00;99.90;;;;;;4410084;28;660088;-76
2024/02/15 02:56:46;;;;;;;35.87;16.63;;;5.00;1.00;;;;;;4448198;28;659745;-76
2024/02/15 02:59:36;;;;;;;37.67;17.63;;;5.10;1.00;;;;;;4420608;28;658847;-76
2024/02/15 03:02:24;;;;;;;43.23;17.43;;;5.10;1.00;;;;;;4409693;28;658727;-75
2024/02/15 03:05:12;;;;;;;33.33;14.33;;;5.20;1.00;;;;;;4426727;28;658630;-76
2024/02/15 03:07:59;;;;;;;30.43;14.77;;;5.30;1.00;;;;;;4403591;28;660005;-76
2024/02/15 03:10:46;;;;;;;40.60;16.53;;;5.20;1.00;;;;;;4430946;28;658187;-76
2024/02/15 03:13:35;;;;;;;31.43;15.50;;;5.10;1.00;;;;;;4408221;28;659279;-76
2024/02/15 03:16:25;;;;;;;37.93;17.30;;;5.00;1.00;;;;;;4412217;28;658909;-75
2024/02/15 03:19:12;;;;;;;44.23;15.00;;;5.10;55.10;;;;;;4422499;28;658445;-76
2024/02/15 03:22:00;;;;;;;34.30;15.57;;;5.10;99.90;;;;;;4430319;28;659505;-76
2024/02/15 03:24:48;;;;;;;32.20;14.87;;;5.00;99.90;;;;;;4421619;28;659253;-76
2024/02/15 03:27:37;;;;;;;36.90;15.80;;;5.00;99.90;;;;;;4425883;28;660323;-76
2024/02/15 03:30:24;;;;;;;32.57;14.47;;;5.00;99.90;;;;;;4407773;28;660027;-76
2024/02/15 03:33:13;;;;;;;38.30;15.07;;;5.00;99.90;;;;;;4430933;28;659086;-76
2024/02/15 03:36:00;;;;;;;47.07;16.03;;;5.00;99.90;;;;;;4387293;28;660019;-76
2024/02/15 03:38:48;;;;;;;30.40;13.83;;;5.00;99.90;;;;;;4390917;28;660129;-76
2024/02/15 03:41:35;;;;;;;35.93;14.57;;;5.00;99.90;;;;;;4412467;28;660184;-76
2024/02/15 03:44:25;;;;;;;30.37;13.57;;;5.00;99.90;;;;;;4409481;28;659557;-76
2024/02/15 03:47:14;;;;;;;33.27;14.97;;;5.00;99.90;;;;;;4406099;28;659579;-75
2024/02/15 03:50:03;;;;;;;33.57;14.03;;;5.00;99.90;;;;;;4426576;28;659488;-76
2024/02/15 03:52:51;;;;;;;31.87;13.77;;;5.10;99.90;;;;;;4390859;28;660526;-76
2024/02/15 03:55:38;;;;;;;36.60;14.83;;;5.00;1.00;;;;;;4421160;28;659569;-76
2024/02/15 03:58:25;;;;;;;33.40;15.37;;;5.00;1.00;;;;;;4412404;28;659403;-76
2024/02/15 04:01:15;;;;;;;32.60;14.90;;;5.00;99.90;;;;;;4409263;28;659107;-75
2024/02/15 04:04:02;;;;;;;34.93;15.77;;;5.00;99.90;;;;;;4426151;28;659786;-76
2024/02/15 04:06:51;;;;;;;37.53;17.17;;;5.00;99.90;;;;;;4422246;28;660553;-76
2024/02/15 04:09:38;;;;;;;31.57;13.20;;;5.00;24.60;;;;;;4404532;28;660354;-76
2024/02/15 04:12:26;;;;;;;32.35;13.70;;;5.00;1.00;;;;;;4431766;28;659677;-76
2024/02/15 04:15:16;;;;;;;30.67;13.93;;;4.80;99.90;;;;;;4409507;28;659469;-76
2024/02/15 04:18:04;;;;;;;35.00;14.43;;;4.80;99.90;;;;;;4409177;28;660011;-76
2024/02/15 04:20:51;;;;;;;34.27;15.47;;;4.90;99.90;;;;;;4427490;28;658929;-76
2024/02/15 04:23:40;;;;;;;37.40;16.45;;;4.90;1.00;;;;;;4408826;28;659528;-77
2024/02/15 04:26:29;;;;;;;44.77;18.80;;;4.90;1.00;;;;;;4414781;28;658374;-76
2024/02/15 04:29:17;;;;;;;44.40;20.90;;;4.90;1.00;;;;;;4466830;28;658532;-76
2024/02/15 04:32:08;;;;;;;51.17;24.07;;;4.90;1.00;;;;;;4445119;28;659320;-76
2024/02/15 04:34:56;;;;;;;50.37;22.67;;;4.90;1.00;;;;;;4446246;28;659452;-76
2024/02/15 04:37:43;;;;;;;41.33;18.20;;;5.00;1.00;;;;;;4446138;28;658613;-76
2024/02/15 04:40:32;;;;;;;41.30;16.23;;;5.10;1.00;;;;;;4468131;28;658918;-76
2024/02/15 04:43:19;;;;;;;47.67;21.73;;;5.10;1.00;;;;;;4445831;28;658836;-76
2024/02/15 04:46:07;;;;;;;39.20;17.30;;;5.10;1.00;;;;;;4464865;28;659170;-76
2024/02/15 04:48:55;;;;;;;43.53;19.97;;;5.00;1.00;;;;;;4440688;28;659239;-76
2024/02/15 04:51:43;;;;;;;33.87;14.90;;;5.00;1.00;;;;;;4411738;28;658933;-75
2024/02/15 04:54:32;;;;;;;40.08;14.63;;;5.00;1.00;;;;;;4440040;28;659112;-76
2024/02/15 04:57:21;;;;;;;36.67;14.43;;;5.10;1.00;;;;;;4425687;28;659625;-76
2024/02/15 05:00:10;;;;;;;34.20;15.30;;;5.10;1.00;;;;;;4425608;28;659388;-76
2024/02/15 05:02:58;;;;;;;31.60;15.18;;;5.10;1.00;;;;;;4445923;28;658752;-76
2024/02/15 05:05:45;;;;;;;36.30;16.00;;;5.00;1.00;;;;;;4464083;28;660066;-76
2024/02/15 05:08:34;;;;;;;46.20;18.23;;;5.00;1.00;;;;;;4456109;28;658898;-76
2024/02/15 05:11:22;;;;;;;45.73;19.57;;;5.00;1.00;;;;;;4465696;28;658839;-76
2024/02/15 05:14:10;;;;;;;41.70;18.33;;;5.00;56.80;;;;;;4445847;28;659484;-76
2024/02/15 05:16:59;;;;;;;34.27;14.87;;;5.00;45.00;;;;;;4444363;28;659755;-76
2024/02/15 05:19:46;;;;;;;41.00;16.70;;;4.90;99.90;;;;;;4463488;28;659766;-76
2024/02/15 05:22:33;;;;;;;43.65;19.48;;;5.00;99.90;;;;;;4439857;28;659553;-76
2024/02/15 05:25:23;;;;;;;50.13;23.07;;;4.90;99.90;;;;;;4463956;28;660769;-76
2024/02/15 05:28:10;;;;;;;39.80;17.30;;;4.90;99.90;;;;;;4440214;28;660563;-76
2024/02/15 05:31:12;;;;;;;50.35;20.92;;;4.90;99.90;;;;;;4449627;28;659664;-75
2024/02/15 05:33:59;;;;;;;59.43;25.03;;;4.90;99.90;;;;;;4421158;28;660245;-76
2024/02/15 05:36:48;;;;;;;54.87;23.70;;;5.00;47.30;;;;;;4466780;28;659727;-76
2024/02/15 05:39:35;;;;;;;43.63;19.70;;;5.10;1.00;;;;;;4442775;28;660060;-76
2024/02/15 05:42:24;;;;;;;52.07;21.83;;;5.10;1.00;;;;;;4459776;28;658960;-75
2024/02/15 05:45:32;;;;;;;68.40;24.83;;;5.20;1.00;;;;;;4464276;28;658974;-76
2024/02/15 05:48:21;;;;;;;61.70;24.70;;;5.20;1.00;;;;;;4421898;28;659964;-76
2024/02/15 05:51:08;;;;;;;57.50;25.43;;;5.10;1.00;;;;;;4444564;28;659018;-76
2024/02/15 05:53:58;;;;;;;70.47;29.73;;;5.10;1.00;;;;;;4466005;28;659941;-76
2024/02/15 05:56:51;;;;;;;79.23;31.43;;;5.00;1.00;;;;;;4424540;28;658656;-76
2024/02/15 05:59:40;;;;;;;80.10;33.73;;;5.00;1.00;;;;;;4424895;28;658990;-76
2024/02/15 06:02:27;;;;;;;86.30;31.83;;;5.10;1.00;;;;;;4433198;28;659028;-75
2024/02/15 06:05:17;;;;;;;86.03;33.00;;;5.20;1.00;;;;;;4429986;28;659100;-76
2024/02/15 06:08:05;;;;;;;66.60;27.67;;;5.20;1.00;;;;;;4411462;28;658606;-76
2024/02/15 06:10:53;;;;;;;59.73;25.43;;;5.20;1.00;;;;;;4436695;28;658655;-76
2024/02/15 06:13:41;;;;;;;65.03;27.53;;;5.20;1.00;;;;;;4429185;28;658922;-76
2024/02/15 06:16:28;;;;;;;66.63;29.20;;;5.20;1.00;;;;;;4410230;28;659312;-76
2024/02/15 06:19:15;;;;;;;80.73;32.53;;;5.20;1.00;;;;;;4446872;28;658696;-76
2024/02/15 06:22:05;;;;;;;53.50;21.97;;;5.30;1.00;;;;;;4432373;28;658267;-74
2024/02/15 06:24:52;;;;;;;50.47;23.43;;;5.30;1.00;;;;;;4433322;28;658595;-77
2024/02/15 06:27:40;;;;;;;42.20;19.17;;;5.30;1.00;;;;;;4427528;28;659069;-76
2024/02/15 06:39:46;;;;;;;42.30;18.47;;;5.40;1.00;;;;;;4421733;28;658804;-76
2024/02/15 06:42:33;;;;;;;48.23;20.37;;;5.30;99.90;;;;;;4427237;28;658539;-76
2024/02/15 06:45:21;;;;;;;47.80;20.77;;;5.40;99.90;;;;;;4441673;28;659631;-76
2024/02/15 06:48:08;;;;;;;52.40;20.03;;;5.50;99.90;;;;;;4408919;28;660004;-76
2024/02/15 06:50:55;;;;;;;41.83;20.13;;;5.50;1.00;;;;;;4422458;28;660146;-76
2024/02/15 06:53:43;;;;;;;51.13;21.57;;;5.60;1.00;;;;;;4401703;28;659050;-76
2024/02/15 06:56:31;;;;;;;51.30;22.67;;;5.70;39.70;;;;;;4427647;28;659907;-76
2024/02/15 06:59:19;;;;;;;45.13;19.63;;;5.80;99.90;;;;;;4406720;28;660093;-76
2024/02/15 07:02:07;;;;;;;53.10;20.47;;;5.70;83.50;;;;;;4447477;28;659980;-76
2024/02/15 07:04:54;;;;;;;41.90;18.70;;;5.80;55.80;;;;;;4425872;28;660017;-76
2024/02/15 07:07:42;;;;;;;44.43;22.63;;;5.90;99.90;;;;;;4465613;28;659515;-77
2024/02/15 07:10:31;;;;;;;41.90;17.00;;;5.90;99.90;;;;;;4442814;28;660499;-76
2024/02/15 07:13:20;;;;;;;46.50;19.48;;;5.90;99.90;;;;;;4438887;28;660446;-76
2024/02/15 07:16:08;;;;;;;42.07;19.73;;;5.90;99.90;;;;;;4456315;28;659758;-76
2024/02/15 07:18:55;;;;;;;37.13;17.00;;;6.00;99.90;;;;;;4464675;28;659552;-76
2024/02/15 07:21:42;;;;;;;42.07;19.80;;;6.10;99.90;;;;;;4442394;28;659699;-75
2024/02/15 07:24:30;;;;;;;48.33;21.27;;;6.20;99.90;;;;;;4465502;28;660544;-76
2024/02/15 07:27:18;;;;;;;41.27;18.30;;;6.30;1.00;;;;;;4465686;28;658853;-75
2024/02/15 07:30:09;;;;;;;45.17;20.47;;;6.30;1.00;;;;;;4466004;28;658204;-76
2024/02/15 07:32:56;;;;;;;44.15;20.38;;;6.30;1.00;;;;;;4437160;28;659079;-76
2024/02/15 07:35:43;;;;;;;40.70;17.83;;;6.50;1.00;;;;;;4442970;28;658609;-76
2024/02/15 07:38:34;;;;;;;36.77;16.23;;;6.50;1.00;;;;;;4466271;28;659188;-76
2024/02/15 07:41:22;;;;;;;37.57;15.70;;;6.50;1.00;;;;;;4440026;28;659180;-76
2024/02/15 07:44:09;;;;;;;35.27;15.70;;;6.60;99.90;;;;;;4439622;28;659205;-77
2024/02/15 07:46:59;;;;;;;36.33;15.37;;;6.80;99.90;;;;;;4465839;28;660199;-76
2024/02/15 07:49:47;;;;;;;28.57;13.77;;;7.00;1.00;;;;;;4432083;28;659763;-76
2024/02/15 07:52:35;;;;;;;30.87;14.30;;;7.10;1.00;;;;;;4461994;28;658742;-76
2024/02/15 07:55:24;;;;;;;33.47;15.20;;;7.20;99.90;;;;;;4441883;28;658750;-76
2024/02/15 07:58:12;;;;;;;31.97;14.80;;;7.30;99.90;;;;;;4448306;28;659715;-76
2024/02/15 08:00:59;;;;;;;38.20;15.07;;;7.40;99.90;;;;;;4417933;28;660056;-76
2024/02/15 08:03:48;;;;;;;35.53;14.97;;;7.50;99.90;;;;;;4444464;28;659398;-77
2024/02/15 08:06:37;;;;;;;35.10;15.40;;;7.60;99.90;;;;;;4407551;28;659575;-77
2024/02/15 08:09:25;;;;;;;34.33;14.27;;;7.80;99.90;;;;;;4424699;28;660241;-76
2024/02/15 08:12:12;;;;;;;34.67;15.10;;;7.80;1.00;;;;;;4429121;28;659873;-75
2024/02/15 08:15:00;;;;;;;24.00;11.90;;;7.90;1.00;;;;;;4435415;28;658604;-76
2024/02/15 08:17:48;;;;;;;29.80;13.20;;;7.90;1.00;;;;;;4447316;28;659034;-75
2024/02/15 08:20:36;;;;;;;29.23;13.20;;;8.00;1.00;;;;;;4431278;28;659770;-76
2024/02/15 08:23:24;;;;;;;28.27;13.40;;;8.00;1.00;;;;;;4430342;28;659142;-76
2024/02/15 08:26:11;;;;;;;30.37;13.93;;;8.00;1.00;;;;;;4448603;28;658492;-76
2024/02/15 08:28:58;;;;;;;28.80;13.48;;;8.10;1.00;;;;;;4412254;28;658666;-76
2024/02/15 08:31:46;;;;;;;26.67;13.33;;;8.10;1.00;;;;;;4449319;28;658515;-76
2024/02/15 08:34:33;;;;;;;27.80;12.02;;;8.20;1.00;;;;;;4430131;28;658862;-77
2024/02/15 08:37:22;;;;;;;24.03;11.60;;;8.30;1.00;;;;;;4449138;28;659056;-76
2024/02/15 08:40:11;;;;;;;27.87;12.80;;;8.30;1.00;;;;;;4424134;28;660404;-76
2024/02/15 08:42:58;;;;;;;29.43;12.30;;;8.40;99.90;;;;;;4411461;28;658603;-76
2024/02/15 08:45:45;;;;;;;29.60;13.07;;;8.60;99.90;;;;;;4429863;28;660271;-77
2024/02/15 08:48:33;;;;;;;28.97;14.83;;;8.60;99.90;;;;;;4428410;28;660498;-76
2024/02/15 08:51:21;;;;;;;27.47;14.30;;;8.60;99.90;;;;;;4446237;28;660141;-76
2024/02/15 08:54:09;;;;;;;28.77;12.43;;;8.80;1.00;;;;;;4428633;28;659578;-76
2024/02/15 08:56:57;;;;;;;28.47;12.07;;;9.00;99.90;;;;;;4449522;28;658939;-76
2024/02/15 08:59:44;;;;;;;22.50;11.70;;;8.90;99.90;;;;;;4429069;28;659996;-76
2024/02/15 09:02:32;;;;;;;24.07;11.90;;;9.10;99.90;;;;;;4447720;28;659911;-76
2024/02/15 09:05:22;;;;;;;20.77;10.00;;;9.20;99.90;;;;;;4429399;28;660770;-77
2024/02/15 09:08:09;;;;;;;29.33;11.83;;;9.40;99.90;;;;;;4411804;28;659875;-76
2024/02/15 09:10:58;;;;;;;35.20;12.37;;;9.50;99.90;;;;;;4451486;28;659327;-76
2024/02/15 09:13:46;;;;;;;22.50;10.97;;;9.50;99.90;;;;;;4424821;28;659928;-76
2024/02/15 09:16:33;;;;;;;26.70;11.77;;;9.40;99.90;;;;;;4410463;28;659621;-76
2024/02/15 09:19:21;;;;;;;21.00;11.23;;;9.50;99.90;;;;;;4447544;28;660560;-75
2024/02/15 09:22:08;;;;;;;25.87;11.97;;;9.70;99.90;;;;;;4428668;28;659522;-76
2024/02/15 09:24:55;;;;;;;26.23;10.90;;;9.80;99.90;;;;;;4446288;28;659664;-76
2024/02/15 09:27:44;;;;;;;24.73;11.10;;;9.90;99.90;;;;;;4432959;28;659754;-76
2024/02/15 09:30:33;;;;;;;23.23;11.37;;;10.00;99.90;;;;;;4449145;28;659666;-76
2024/02/15 09:33:20;;;;;;;26.57;10.67;;;10.10;99.90;;;;;;4422905;28;661482;-76
2024/02/15 09:36:08;;;;;;;24.90;10.70;;;10.20;99.90;;;;;;4425829;28;661115;-76
2024/02/15 09:38:55;;;;;;;25.63;10.43;;;10.40;99.90;;;;;;4446893;28;660847;-76
2024/02/15 09:41:43;;;;;;;24.80;10.77;;;10.60;99.90;;;;;;4427201;28;661070;-75
2024/02/15 09:44:31;;;;;;;14.80;6.13;;;10.80;99.90;;;;;;4446008;28;660882;-76
2024/02/15 09:47:19;;;;;;;20.40;9.37;;;10.90;73.10;;;;;;4425002;28;659659;-76
2024/02/15 09:50:07;;;;;;;18.97;8.87;;;10.50;99.90;;;;;;4429821;28;659251;-76
2024/02/15 09:52:54;;;;;;;14.63;7.40;;;11.00;99.90;;;;;;4423689;28;660737;-76
2024/02/15 09:55:42;;;;;;;19.43;8.13;;;11.60;9.70;;;;;;4442416;28;659685;-77
2024/02/15 09:58:33;;;;;;;17.90;7.97;;;11.60;99.90;;;;;;4424611;28;659645;-76
2024/02/15 10:01:23;;;;;;;13.63;6.47;;;12.10;1.00;;;;;;4423545;28;660614;-76
2024/02/15 10:04:15;;;;;;;17.97;8.70;;;11.90;1.00;;;;;;4425316;28;659183;-76
2024/02/15 10:07:02;;;;;;;24.37;10.57;;;11.80;1.00;;;;;;4417763;28;659163;-75
2024/02/15 10:09:50;;;;;;;21.40;10.63;;;12.10;57.70;;;;;;4451146;28;659923;-76
2024/02/15 10:12:39;;;;;;;23.97;10.60;;;12.70;1.00;;;;;;4422893;28;660844;-76
2024/02/15 10:15:30;;;;;;;18.77;8.00;;;13.50;1.00;;;;;;4446161;28;660280;-77
2024/02/15 10:18:19;;;;;;;20.77;10.37;;;13.80;1.00;;;;;;4389088;28;658802;-76
2024/02/15 10:21:06;;;;;;;22.73;10.50;;;13.80;1.00;;;;;;4433207;28;659657;-77
2024/02/15 10:24:07;;;;;;;13.30;4.80;;;15.00;1.00;;;;;;4410210;28;660161;-76
2024/02/15 10:27:01;;;;;;;21.13;9.53;;;13.80;1.00;;;;;;4411464;28;658661;-76
2024/02/15 10:29:50;;;;;;;18.80;7.57;;;13.70;1.00;;;;;;4400084;28;659238;-76
2024/02/15 10:32:38;;;;;;;20.63;6.30;;;14.50;1.00;;;;;;4437300;28;658676;-75
2024/02/15 10:35:26;;;;;;;6.57;2.70;;;14.10;1.00;;;;;;4431112;28;659382;-77
2024/02/15 10:38:15;;;;;;;3.67;1.80;;;13.30;1.00;;;;;;4428350;28;657776;-76
2024/02/15 10:41:04;;;;;;;3.60;1.57;;;12.60;1.00;;;;;;4440011;28;657490;-76
2024/02/15 10:43:53;;;;;;;3.40;1.30;;;12.80;1.00;;;;;;4448823;28;658312;-77
2024/02/15 10:46:41;;;;;;;5.47;2.60;;;12.30;1.00;;;;;;4425303;28;658675;-76
2024/02/15 10:49:28;;;;;;;6.53;2.00;;;11.80;1.00;;;;;;4428737;28;657320;-76
2024/02/15 10:52:17;;;;;;;3.80;1.80;;;12.80;1.00;;;;;;4443021;28;657843;-76
2024/02/15 10:55:08;;;;;;;5.03;2.13;;;12.60;1.00;;;;;;4424809;28;658173;-76
2024/02/15 10:57:55;;;;;;;6.33;1.27;;;12.50;1.00;;;;;;4425764;28;658416;-77
2024/02/15 11:00:43;;;;;;;6.00;2.90;;;13.30;1.00;;;;;;4428447;28;657563;-76
2024/02/15 11:03:33;;;;;;;3.93;1.90;;;13.30;1.00;;;;;;4448876;28;658931;-76
2024/02/15 11:06:21;;;;;;;5.33;1.77;;;12.60;1.00;;;;;;4425518;28;658530;-75
2024/02/15 11:09:11;;;;;;;5.17;2.33;;;12.60;1.00;;;;;;4429271;28;658004;-76
2024/02/15 11:11:58;;;;;;;3.70;2.23;;;13.20;1.00;;;;;;4429533;28;658345;-75
2024/02/15 11:14:45;;;;;;;1.30;0.70;;;13.30;1.00;;;;;;4448694;28;659295;-75
2024/02/15 11:17:55;;;;;;;3.90;2.17;;;13.30;1.00;;;;;;4429755;28;657652;-75
2024/02/15 11:20:50;;;;;;;4.53;2.17;;;14.10;1.00;;;;;;4428461;28;657865;-76
2024/02/15 11:23:38;;;;;;;3.70;1.70;;;13.80;1.00;;;;;;4414856;28;658164;-76
2024/02/15 11:26:46;;;;;;;7.50;2.90;;;13.80;1.00;;;;;;4448594;28;657830;-76
2024/02/15 11:29:51;;;;;;;7.75;2.70;;;14.00;1.00;;;;;;4402971;28;658092;-76
2024/02/15 11:32:39;;;;;;;4.60;2.07;;;14.40;1.00;;;;;;4406313;28;657508;-76
2024/02/15 11:35:30;;;;;;;6.83;2.80;;;13.90;1.00;;;;;;4432916;28;657538;-76
2024/02/15 11:38:28;;;;;;;7.10;2.00;;;14.20;1.00;;;;;;4446210;28;657472;-76
2024/02/15 11:41:19;;;;;;;4.03;2.20;;;14.90;1.00;;;;;;4428780;28;658498;-76
2024/02/15 11:44:08;;;;;;;2.20;1.37;;;15.90;1.00;;;;;;4426304;28;657937;-76
2024/02/15 11:46:57;;;;;;;4.77;1.87;;;15.30;1.00;;;;;;4413375;28;658149;-76
2024/02/15 11:49:44;;;;;;;4.07;1.90;;;15.00;1.00;;;;;;4419646;28;657400;-75
2024/02/15 11:52:31;;;;;;;3.97;1.73;;;14.70;1.00;;;;;;4454551;28;657423;-78
2024/02/15 11:55:22;;;;;;;3.73;1.97;;;15.70;1.00;;;;;;4431860;28;657650;-76
2024/02/15 11:58:21;;;;;;;5.50;2.50;;;14.10;1.00;;;;;;4432740;28;658175;-76
2024/02/15 12:19:40;;;;;;;8.60;4.40;;;12.00;1.00;;;;;;4390486;28;657909;-76
2024/02/15 12:22:28;;;;;;;10.63;4.33;;;12.00;81.10;;;;;;4433272;28;657452;-76
2024/02/15 12:25:16;;;;;;;8.93;3.20;;;12.20;1.00;;;;;;4411111;28;659687;-76
2024/02/15 12:28:04;;;;;;;6.33;3.27;;;12.10;12.80;;;;;;4413326;28;657935;-77
2024/02/15 12:30:55;;;;;;;7.33;3.37;;;12.10;1.00;;;;;;4434681;28;658318;-76
2024/02/15 12:33:44;;;;;;;6.78;3.40;;;12.20;23.20;;;;;;4390518;28;657374;-75
2024/02/15 12:36:32;;;;;;;8.07;3.87;;;12.30;1.00;;;;;;4431524;28;659156;-75
2024/02/15 12:39:25;;;;;;;6.80;3.10;;;12.90;1.00;;;;;;4422938;28;658846;-76
2024/02/15 12:42:12;;;;;;;6.53;3.30;;;13.30;1.00;;;;;;4410008;28;658203;-75
2024/02/15 12:45:00;;;;;;;8.40;2.90;;;13.20;1.00;;;;;;4450090;28;657996;-75
2024/02/15 12:47:49;;;;;;;6.17;3.00;;;13.30;1.00;;;;;;4430565;28;657802;-75
2024/02/15 12:50:38;;;;;;;4.63;2.40;;;13.00;1.00;;;;;;4453808;28;656955;-75
2024/02/15 12:53:26;;;;;;;6.53;3.20;;;12.90;1.00;;;;;;4429964;28;658532;-75
2024/02/15 12:56:21;;;;;;;8.33;3.40;;;13.10;1.00;;;;;;4412259;28;658057;-75
2024/02/15 12:59:08;;;;;;;7.87;3.40;;;13.40;1.00;;;;;;4411524;28;657298;-75
2024/02/15 13:01:55;;;;;;;6.40;2.40;;;14.20;1.00;;;;;;4449536;28;657872;-76
2024/02/15 13:04:43;;;;;;;6.70;2.50;;;13.80;1.00;;;;;;4429779;28;657480;-75
2024/02/15 13:07:31;;;;;;;4.60;2.07;;;13.10;1.00;;;;;;4449233;28;658268;-75
2024/02/15 13:10:19;;;;;;;4.63;2.57;;;13.10;1.00;;;;;;4429441;28;658422;-76
2024/02/15 13:13:07;;;;;;;6.93;2.47;;;13.10;1.00;;;;;;4451691;28;657529;-75
2024/02/15 13:15:54;;;;;;;5.73;2.70;;;13.30;1.00;;;;;;4430659;28;657987;-76
2024/02/15 13:18:42;;;;;;;6.00;2.50;;;13.10;1.00;;;;;;4448913;28;657627;-75
2024/02/15 13:21:31;;;;;;;5.80;2.70;;;12.90;1.00;;;;;;4426500;28;657855;-76
2024/02/15 13:24:20;;;;;;;8.83;2.30;;;13.30;1.00;;;;;;4430290;28;657355;-76
2024/02/15 13:27:10;;;;;;;3.90;2.53;;;13.80;1.00;;;;;;4429913;28;657859;-75
2024/02/15 13:29:57;;;;;;;2.90;2.17;;;13.80;1.00;;;;;;4452763;28;657370;-75
2024/02/15 13:32:45;;;;;;;5.10;2.20;;;14.00;1.00;;;;;;4430310;28;657707;-75
2024/02/15 13:35:32;;;;;;;4.40;2.00;;;14.20;1.00;;;;;;4445695;28;657591;-75
2024/02/15 13:38:23;;;;;;;6.90;2.13;;;14.50;1.00;;;;;;4448963;28;657880;-75
2024/02/15 13:41:12;;;;;;;5.40;2.30;;;13.90;1.00;;;;;;4425838;28;657556;-75
2024/02/15 13:43:59;;;;;;;4.53;2.27;;;13.50;1.00;;;;;;4429363;28;658330;-76
2024/02/15 13:46:49;;;;;;;3.67;2.13;;;13.50;1.00;;;;;;4448417;28;657617;-75
2024/02/15 13:49:37;;;;;;;4.60;2.30;;;13.00;1.00;;;;;;4425766;28;657724;-75
2024/02/15 13:52:24;;;;;;;3.33;2.13;;;12.60;1.00;;;;;;4430329;28;658013;-75
2024/02/15 13:55:12;;;;;;;6.57;2.20;;;12.40;1.00;;;;;;4452542;28;657508;-75
2024/02/15 13:58:01;;;;;;;4.07;2.20;;;12.40;1.00;;;;;;4426472;28;657887;-75
2024/02/15 14:00:49;;;;;;;4.57;2.20;;;12.40;1.00;;;;;;4430304;28;657897;-75
2024/02/15 14:03:36;;;;;;;5.90;2.37;;;12.30;1.00;;;;;;4448547;28;657596;-75
2024/02/15 14:06:23;;;;;;;3.97;2.27;;;12.00;14.40;;;;;;4411627;28;657999;-75
2024/02/15 14:09:11;;;;;;;3.53;2.10;;;12.00;1.00;;;;;;4452039;28;658930;-75
2024/02/15 14:11:59;;;;;;;4.27;2.27;;;12.00;1.00;;;;;;4427949;28;657606;-75
2024/02/15 14:14:47;;;;;;;4.37;2.33;;;12.00;50.60;;;;;;4449806;28;657931;-75
2024/02/15 14:17:35;;;;;;;7.70;2.60;;;11.90;26.00;;;;;;4412222;28;659999;-75
2024/02/15 14:20:23;;;;;;;5.97;2.23;;;11.80;21.90;;;;;;4452053;28;658213;-75
2024/02/15 14:23:13;;;;;;;9.33;2.73;;;11.90;99.90;;;;;;4411312;28;659192;-75
2024/02/15 14:26:02;;;;;;;4.70;2.30;;;11.90;53.80;;;;;;4424635;28;658913;-75
2024/02/15 14:28:49;;;;;;;8.27;3.10;;;12.00;99.90;;;;;;4411547;28;659099;-75
2024/02/15 14:34:42;;;;;;;7.77;3.00;;;12.00;92.10;;;;;;4409158;28;658777;-75
2024/02/15 14:37:30;;;;;;;7.27;3.20;;;12.00;23.30;;;;;;4450645;28;659366;-75
2024/02/15 14:40:18;;;;;;;7.97;3.90;;;12.00;96.10;;;;;;4445923;28;658604;-75
2024/02/15 14:43:06;;;;;;;9.60;4.40;;;12.00;99.90;;;;;;4432338;28;659085;-75
2024/02/15 14:45:53;;;;;;;7.43;3.13;;;12.00;74.70;;;;;;4427349;28;658676;-75
2024/02/15 14:48:43;;;;;;;7.10;3.70;;;12.00;61.10;;;;;;4449637;28;658684;-75
2024/02/15 14:51:31;;;;;;;9.77;3.53;;;12.00;99.90;;;;;;4426430;28;658528;-75
2024/02/15 14:54:19;;;;;;;11.15;4.82;;;12.10;26.90;;;;;;4424162;28;659372;-75